Time;durP1;ratioP1;P1;durP2;ratioP2;P2;SDS_P1;SDS_P2;PMS_P1;PMS_P2;Temp;Humidity;BMP_temperature;BMP_pressure;BME280_temperature;BME280_humidity;BME280_pressure;Samples;Min_cycle;Max_cycle;Signal;HPM_P1;HPM_P2
2021/07/16 00:00:39;;;;;;;0.20;0.20;;;;;;;;;;5073333;28;20981;-63
2021/07/16 00:03:05;;;;;;;0.20;0.20;;;;;;;;;;5073332;28;20439;-63
2021/07/16 00:05:31;;;;;;;0.20;0.20;;;;;;;;;;5073534;28;20432;-64
2021/07/16 00:07:57;;;;;;;0.20;0.20;;;;;;;;;;5073497;28;20441;-63
2021/07/16 00:10:23;;;;;;;0.20;0.20;;;;;;;;;;5072591;28;20484;-63
2021/07/16 00:12:49;;;;;;;0.30;0.30;;;;;;;;;;5073356;28;20409;-63
2021/07/16 00:15:16;;;;;;;0.20;0.20;;;;;;;;;;5073171;28;20999;-63
2021/07/16 00:17:42;;;;;;;0.20;0.20;;;;;;;;;;5072501;28;20467;-64
2021/07/16 00:20:09;;;;;;;0.20;0.20;;;;;;;;;;5072884;28;20417;-64
2021/07/16 00:22:35;;;;;;;0.20;0.20;;;;;;;;;;5073757;28;20447;-64
2021/07/16 00:25:02;;;;;;;0.30;0.30;;;;;;;;;;5072840;28;20404;-63
2021/07/16 00:27:28;;;;;;;0.20;0.20;;;;;;;;;;5072990;28;20410;-63
2021/07/16 00:29:54;;;;;;;0.20;0.20;;;;;;;;;;5072651;28;20485;-63
2021/07/16 00:32:19;;;;;;;0.20;0.20;;;;;;;;;;5072907;28;20438;-64
2021/07/16 00:34:46;;;;;;;0.20;0.20;;;;;;;;;;5072725;28;20488;-64
2021/07/16 00:37:12;;;;;;;0.20;0.20;;;;;;;;;;5072770;28;20518;-64
2021/07/16 00:39:38;;;;;;;0.20;0.20;;;;;;;;;;5074853;28;20584;-63
2021/07/16 00:42:04;;;;;;;0.30;0.30;;;;;;;;;;5083243;28;20305;-63
2021/07/16 00:44:33;;;;;;;0.20;0.20;;;;;;;;;;5082911;28;20180;-64
2021/07/16 00:46:59;;;;;;;0.20;0.20;;;;;;;;;;5077301;28;20446;-63
2021/07/16 00:49:25;;;;;;;0.20;0.20;;;;;;;;;;5073058;28;20489;-63
2021/07/16 00:51:51;;;;;;;0.20;0.20;;;;;;;;;;5072493;28;20933;-64
2021/07/16 00:54:18;;;;;;;0.20;0.20;;;;;;;;;;5072395;28;20409;-63
2021/07/16 00:56:44;;;;;;;0.20;0.20;;;;;;;;;;5072414;28;20474;-63
2021/07/16 00:59:14;;;;;;;0.20;0.20;;;;;;;;;;5071754;28;20389;-63
2021/07/16 01:01:40;;;;;;;0.20;0.20;;;;;;;;;;5071656;28;20175;-64
2021/07/16 01:04:06;;;;;;;0.20;0.20;;;;;;;;;;5072345;28;20920;-63
2021/07/16 01:06:32;;;;;;;0.20;0.20;;;;;;;;;;5072155;28;20401;-63
2021/07/16 01:08:58;;;;;;;0.30;0.30;;;;;;;;;;5072191;28;20478;-63
2021/07/16 01:11:24;;;;;;;0.20;0.20;;;;;;;;;;5072013;28;20410;-64
2021/07/16 01:13:50;;;;;;;0.30;0.30;;;;;;;;;;5071764;28;20782;-63
2021/07/16 01:16:16;;;;;;;0.20;0.20;;;;;;;;;;5071944;28;20431;-63
2021/07/16 01:18:43;;;;;;;0.20;0.20;;;;;;;;;;5072102;28;20928;-63
2021/07/16 01:21:10;;;;;;;0.20;0.20;;;;;;;;;;5071655;28;20439;-64
2021/07/16 01:23:36;;;;;;;0.30;0.30;;;;;;;;;;5071865;28;20173;-64
2021/07/16 01:26:05;;;;;;;0.20;0.20;;;;;;;;;;5071782;28;20453;-63
2021/07/16 01:28:31;;;;;;;0.20;0.20;;;;;;;;;;5071893;28;20489;-64
2021/07/16 01:30:57;;;;;;;0.20;0.20;;;;;;;;;;5071347;28;20452;-63
2021/07/16 01:33:23;;;;;;;0.20;0.20;;;;;;;;;;5071768;28;20410;-63
2021/07/16 01:35:49;;;;;;;0.20;0.20;;;;;;;;;;5071335;28;20576;-63
2021/07/16 01:38:15;;;;;;;0.20;0.20;;;;;;;;;;5071767;28;20400;-63
2021/07/16 01:40:42;;;;;;;0.20;0.20;;;;;;;;;;5071486;28;20418;-63
2021/07/16 01:43:08;;;;;;;0.20;0.20;;;;;;;;;;5071626;28;20409;-64
2021/07/16 01:45:38;;;;;;;0.20;0.20;;;;;;;;;;5071384;28;20498;-64
2021/07/16 01:48:05;;;;;;;0.20;0.20;;;;;;;;;;5071646;28;20418;-62
2021/07/16 01:50:32;;;;;;;0.30;0.30;;;;;;;;;;5071182;28;20474;-63
2021/07/16 01:52:58;;;;;;;0.20;0.20;;;;;;;;;;5071562;28;20451;-63
2021/07/16 01:55:25;;;;;;;0.20;0.20;;;;;;;;;;5071421;28;20429;-64
2021/07/16 01:57:55;;;;;;;0.20;0.20;;;;;;;;;;5071408;28;20182;-64
2021/07/16 02:00:29;;;;;;;0.20;0.20;;;;;;;;;;5070388;28;20512;-64
2021/07/16 02:02:56;;;;;;;0.20;0.20;;;;;;;;;;5071620;28;20621;-63
2021/07/16 02:05:23;;;;;;;0.20;0.20;;;;;;;;;;5071350;28;20436;-63
2021/07/16 02:07:53;;;;;;;0.20;0.20;;;;;;;;;;5071285;28;20492;-64
2021/07/16 02:10:20;;;;;;;0.20;0.20;;;;;;;;;;5070987;28;20452;-63
2021/07/16 02:12:46;;;;;;;0.20;0.20;;;;;;;;;;5071376;28;20406;-64
2021/07/16 02:15:20;;;;;;;0.20;0.20;;;;;;;;;;5071259;28;20410;-63
2021/07/16 02:17:47;;;;;;;0.20;0.20;;;;;;;;;;5071338;28;20432;-64
2021/07/16 02:20:24;;;;;;;0.20;0.20;;;;;;;;;;5070995;28;20381;-64
2021/07/16 02:22:51;;;;;;;0.20;0.20;;;;;;;;;;5071269;28;20404;-64
2021/07/16 02:25:17;;;;;;;0.20;0.20;;;;;;;;;;5071161;28;20435;-64
2021/07/16 02:27:45;;;;;;;0.20;0.20;;;;;;;;;;5071286;28;20405;-64
2021/07/16 02:30:11;;;;;;;0.30;0.20;;;;;;;;;;5070729;28;20449;-64
2021/07/16 02:32:37;;;;;;;0.30;0.20;;;;;;;;;;5053207;28;20674;-64
2021/07/16 02:35:04;;;;;;;0.30;0.20;;;;;;;;;;5071179;28;20381;-63
2021/07/16 02:37:30;;;;;;;0.30;0.20;;;;;;;;;;5071182;28;20459;-63
2021/07/16 02:39:56;;;;;;;0.30;0.20;;;;;;;;;;5070884;28;20441;-63
2021/07/16 02:42:22;;;;;;;0.30;0.20;;;;;;;;;;5073692;28;20246;-63
2021/07/16 02:44:48;;;;;;;0.30;0.20;;;;;;;;;;5074769;28;20379;-64
2021/07/16 02:47:14;;;;;;;0.30;0.20;;;;;;;;;;5074738;28;20460;-63
2021/07/16 02:49:40;;;;;;;0.30;0.20;;;;;;;;;;5074684;28;20466;-63
2021/07/16 02:52:06;;;;;;;0.20;0.20;;;;;;;;;;5074603;28;20407;-63
2021/07/16 02:54:32;;;;;;;0.30;0.20;;;;;;;;;;5074378;28;20403;-63
2021/07/16 02:56:58;;;;;;;0.30;0.20;;;;;;;;;;5074547;28;20596;-63
2021/07/16 02:59:24;;;;;;;0.30;0.20;;;;;;;;;;5074138;28;20406;-63
2021/07/16 03:01:57;;;;;;;0.20;0.20;;;;;;;;;;5074327;28;20774;-63
2021/07/16 03:04:23;;;;;;;0.20;0.20;;;;;;;;;;5074546;28;20421;-63
2021/07/16 03:06:49;;;;;;;0.20;0.20;;;;;;;;;;5074334;28;20427;-63
2021/07/16 03:09:15;;;;;;;0.20;0.20;;;;;;;;;;5074192;28;20388;-63
2021/07/16 03:11:41;;;;;;;0.20;0.20;;;;;;;;;;5074187;28;20165;-63
2021/07/16 03:14:07;;;;;;;0.20;0.20;;;;;;;;;;5074271;28;20425;-63
2021/07/16 03:16:33;;;;;;;0.20;0.20;;;;;;;;;;5074151;28;20423;-63
2021/07/16 03:19:00;;;;;;;0.20;0.20;;;;;;;;;;5056088;28;20424;-62
2021/07/16 03:21:26;;;;;;;0.20;0.20;;;;;;;;;;5073903;28;20543;-64
2021/07/16 03:23:52;;;;;;;0.27;0.23;;;;;;;;;;5074215;28;20203;-63
2021/07/16 03:26:18;;;;;;;0.30;0.20;;;;;;;;;;5074085;28;20757;-64
2021/07/16 03:28:44;;;;;;;0.30;0.20;;;;;;;;;;5074036;28;20413;-63
2021/07/16 03:31:10;;;;;;;0.20;0.20;;;;;;;;;;5073649;28;20435;-63
2021/07/16 03:33:36;;;;;;;0.20;0.20;;;;;;;;;;5073971;28;20639;-64
2021/07/16 03:36:03;;;;;;;0.20;0.20;;;;;;;;;;5073922;28;20530;-63
2021/07/16 03:38:29;;;;;;;0.20;0.20;;;;;;;;;;5073728;28;20416;-63
2021/07/16 03:40:57;;;;;;;0.20;0.20;;;;;;;;;;5073622;28;20179;-63
2021/07/16 03:43:23;;;;;;;0.20;0.20;;;;;;;;;;5073656;28;20417;-62
2021/07/16 03:45:51;;;;;;;0.20;0.20;;;;;;;;;;5073483;28;20441;-62
2021/07/16 03:48:17;;;;;;;0.20;0.20;;;;;;;;;;5073652;28;20444;-62
2021/07/16 03:50:43;;;;;;;0.20;0.20;;;;;;;;;;5073541;28;20472;-63
2021/07/16 03:53:09;;;;;;;0.20;0.20;;;;;;;;;;5073675;28;20372;-62
2021/07/16 03:55:35;;;;;;;0.20;0.20;;;;;;;;;;5073487;28;20429;-62
2021/07/16 03:58:01;;;;;;;0.20;0.20;;;;;;;;;;5073285;28;20984;-62
2021/07/16 04:00:30;;;;;;;0.20;0.20;;;;;;;;;;5073458;28;20406;-62
2021/07/16 04:02:57;;;;;;;0.20;0.20;;;;;;;;;;5073434;28;20906;-62
2021/07/16 04:05:24;;;;;;;0.20;0.20;;;;;;;;;;5073348;28;20999;-62
2021/07/16 04:07:51;;;;;;;0.20;0.20;;;;;;;;;;5073242;28;20412;-62
2021/07/16 04:10:18;;;;;;;0.20;0.20;;;;;;;;;;5072990;28;20870;-62
2021/07/16 04:12:51;;;;;;;0.20;0.20;;;;;;;;;;5073052;28;20426;-62
2021/07/16 04:15:17;;;;;;;0.20;0.20;;;;;;;;;;5073129;28;20417;-62
2021/07/16 04:17:43;;;;;;;0.20;0.20;;;;;;;;;;5073190;28;20441;-62
2021/07/16 04:20:10;;;;;;;0.20;0.20;;;;;;;;;;5072890;28;20219;-62
2021/07/16 04:22:36;;;;;;;0.20;0.20;;;;;;;;;;5073070;28;20422;-62
2021/07/16 04:25:02;;;;;;;0.20;0.20;;;;;;;;;;5072876;28;20425;-62
2021/07/16 04:27:28;;;;;;;0.30;0.20;;;;;;;;;;5072912;28;20788;-62
2021/07/16 04:29:54;;;;;;;0.20;0.20;;;;;;;;;;5072554;28;20461;-63
2021/07/16 04:32:21;;;;;;;0.20;0.20;;;;;;;;;;5073012;28;20417;-63
2021/07/16 04:34:47;;;;;;;0.30;0.20;;;;;;;;;;5072784;28;20395;-62
2021/07/16 04:37:13;;;;;;;0.30;0.20;;;;;;;;;;5072804;28;20409;-62
2021/07/16 04:39:39;;;;;;;0.30;0.20;;;;;;;;;;5072597;28;20405;-62
2021/07/16 04:42:05;;;;;;;0.30;0.20;;;;;;;;;;5072754;28;20516;-63
2021/07/16 04:44:31;;;;;;;0.30;0.20;;;;;;;;;;5072635;28;20417;-63
2021/07/16 04:46:58;;;;;;;0.30;0.20;;;;;;;;;;5110626;22;20643;-66
2021/07/16 04:49:24;;;;;;;0.30;0.20;;;;;;;;;;5092423;28;20397;-65
2021/07/16 04:51:50;;;;;;;0.30;0.20;;;;;;;;;;5092174;28;20413;-66
2021/07/16 04:54:16;;;;;;;0.30;0.20;;;;;;;;;;5092752;28;20237;-64
2021/07/16 04:56:43;;;;;;;0.30;0.20;;;;;;;;;;5092531;28;20424;-63
2021/07/16 04:59:08;;;;;;;0.30;0.20;;;;;;;;;;5092475;28;20440;-64
2021/07/16 05:01:34;;;;;;;0.30;0.20;;;;;;;;;;5092277;28;20447;-65
2021/07/16 05:04:00;;;;;;;0.30;0.20;;;;;;;;;;5092050;28;20390;-65
2021/07/16 05:06:26;;;;;;;0.30;0.20;;;;;;;;;;5092397;28;20440;-65
2021/07/16 05:08:53;;;;;;;0.30;0.20;;;;;;;;;;5092442;28;20440;-66
2021/07/16 05:11:19;;;;;;;0.30;0.20;;;;;;;;;;5092099;28;20460;-66
2021/07/16 05:13:45;;;;;;;0.30;0.20;;;;;;;;;;5092232;28;20533;-66
2021/07/16 05:16:13;;;;;;;0.30;0.20;;;;;;;;;;5092207;28;20420;-65
2021/07/16 05:18:39;;;;;;;0.30;0.20;;;;;;;;;;5092212;28;20437;-66
2021/07/16 05:21:06;;;;;;;0.30;0.20;;;;;;;;;;5091718;28;20455;-65
2021/07/16 05:23:32;;;;;;;0.30;0.20;;;;;;;;;;5092052;28;20499;-67
2021/07/16 05:25:58;;;;;;;0.30;0.20;;;;;;;;;;5091940;28;20484;-66
2021/07/16 05:28:25;;;;;;;0.30;0.20;;;;;;;;;;5091860;28;20489;-67
2021/07/16 05:30:51;;;;;;;0.30;0.20;;;;;;;;;;5091528;28;20448;-67
2021/07/16 05:33:17;;;;;;;0.30;0.20;;;;;;;;;;5091784;28;20450;-66
2021/07/16 05:35:44;;;;;;;0.30;0.20;;;;;;;;;;5091776;28;20433;-66
2021/07/16 05:38:10;;;;;;;0.30;0.20;;;;;;;;;;5091749;28;20899;-65
2021/07/16 05:40:36;;;;;;;0.30;0.20;;;;;;;;;;5091590;28;20454;-65
2021/07/16 05:43:20;;;;;;;0.30;0.20;;;;;;;;;;5091817;28;20425;-66
2021/07/16 05:45:46;;;;;;;0.30;0.20;;;;;;;;;;5091632;28;20443;-65
2021/07/16 05:48:12;;;;;;;0.30;0.20;;;;;;;;;;5091715;28;20781;-64
2021/07/16 05:50:40;;;;;;;0.30;0.20;;;;;;;;;;5091260;28;20461;-64
2021/07/16 05:53:06;;;;;;;0.30;0.20;;;;;;;;;;5091908;28;20412;-66
2021/07/16 05:55:33;;;;;;;0.30;0.20;;;;;;;;;;5091624;28;20925;-66
2021/07/16 05:57:59;;;;;;;0.30;0.20;;;;;;;;;;5091642;28;20379;-66
2021/07/16 06:00:25;;;;;;;0.30;0.20;;;;;;;;;;5091272;28;20405;-66
2021/07/16 06:02:51;;;;;;;0.30;0.20;;;;;;;;;;5091629;28;20412;-67
2021/07/16 06:05:17;;;;;;;0.30;0.20;;;;;;;;;;5091483;28;20899;-66
2021/07/16 06:07:44;;;;;;;0.30;0.20;;;;;;;;;;5091381;28;20473;-66
2021/07/16 06:10:11;;;;;;;0.30;0.20;;;;;;;;;;5091094;28;20454;-66
2021/07/16 06:12:37;;;;;;;0.30;0.20;;;;;;;;;;5091530;28;20389;-63
2021/07/16 06:15:03;;;;;;;0.30;0.20;;;;;;;;;;5091299;28;20408;-66
2021/07/16 06:17:31;;;;;;;0.30;0.20;;;;;;;;;;5094353;28;20480;-65
2021/07/16 06:19:57;;;;;;;0.30;0.20;;;;;;;;;;5095328;28;20413;-65
2021/07/16 06:22:23;;;;;;;0.30;0.20;;;;;;;;;;5095532;28;20461;-65
2021/07/16 06:24:49;;;;;;;0.30;0.20;;;;;;;;;;5095393;28;20889;-66
2021/07/16 06:27:16;;;;;;;0.30;0.20;;;;;;;;;;5095512;28;20512;-65
2021/07/16 06:29:42;;;;;;;0.30;0.20;;;;;;;;;;5095134;28;20463;-65
2021/07/16 06:32:08;;;;;;;0.30;0.20;;;;;;;;;;5083557;28;20454;-66
2021/07/16 06:34:34;;;;;;;0.30;0.20;;;;;;;;;;5074359;28;20413;-66
2021/07/16 06:37:00;;;;;;;0.30;0.20;;;;;;;;;;5074633;28;20478;-66
2021/07/16 06:39:26;;;;;;;0.30;0.20;;;;;;;;;;5074399;28;20409;-65
2021/07/16 06:41:53;;;;;;;0.30;0.20;;;;;;;;;;5074483;28;20914;-65
2021/07/16 06:44:19;;;;;;;0.30;0.20;;;;;;;;;;5073869;28;20441;-66
2021/07/16 06:46:45;;;;;;;0.30;0.20;;;;;;;;;;5074155;28;20479;-64
2021/07/16 06:49:11;;;;;;;0.30;0.20;;;;;;;;;;5074556;28;20910;-65
2021/07/16 06:51:37;;;;;;;0.30;0.20;;;;;;;;;;5074149;28;20439;-65
2021/07/16 06:54:04;;;;;;;0.30;0.20;;;;;;;;;;5074468;28;20406;-67
2021/07/16 06:56:31;;;;;;;0.30;0.20;;;;;;;;;;5073455;28;20433;-67
2021/07/16 06:58:57;;;;;;;0.30;0.20;;;;;;;;;;5074222;28;20444;-66
2021/07/16 07:01:23;;;;;;;0.30;0.30;;;;;;;;;;5073964;28;20409;-66
2021/07/16 07:03:49;;;;;;;0.30;0.30;;;;;;;;;;5074408;28;20574;-64
2021/07/16 07:06:15;;;;;;;0.30;0.20;;;;;;;;;;5074024;28;20482;-67
2021/07/16 07:08:41;;;;;;;0.30;0.20;;;;;;;;;;5073377;28;20437;-66
2021/07/16 07:11:08;;;;;;;0.30;0.30;;;;;;;;;;5073634;28;20547;-66
2021/07/16 07:13:34;;;;;;;0.30;0.20;;;;;;;;;;5074037;28;20389;-63
2021/07/16 07:16:01;;;;;;;0.30;0.23;;;;;;;;;;5073818;28;20849;-67
2021/07/16 07:18:27;;;;;;;0.30;0.20;;;;;;;;;;5073264;28;20442;-66
2021/07/16 07:20:54;;;;;;;0.30;0.20;;;;;;;;;;5073267;28;20827;-65
2021/07/16 07:23:20;;;;;;;0.30;0.20;;;;;;;;;;5074046;28;20877;-66
2021/07/16 07:25:46;;;;;;;0.30;0.20;;;;;;;;;;5073628;28;20396;-65
2021/07/16 07:28:13;;;;;;;0.30;0.30;;;;;;;;;;5073375;28;20458;-66
2021/07/16 07:30:39;;;;;;;0.30;0.20;;;;;;;;;;5072826;28;20533;-66
2021/07/16 07:33:08;;;;;;;0.30;0.23;;;;;;;;;;5073357;28;20869;-67
2021/07/16 07:35:34;;;;;;;0.30;0.30;;;;;;;;;;5073599;28;20410;-67
2021/07/16 07:38:01;;;;;;;0.30;0.20;;;;;;;;;;5073520;28;20492;-65
2021/07/16 07:40:27;;;;;;;0.30;0.20;;;;;;;;;;5072724;28;20388;-65
2021/07/16 07:42:53;;;;;;;0.30;0.20;;;;;;;;;;5073559;28;20409;-66
2021/07/16 07:45:20;;;;;;;0.30;0.20;;;;;;;;;;5073020;28;20490;-65
2021/07/16 07:47:47;;;;;;;0.30;0.30;;;;;;;;;;5076633;28;20420;-65
2021/07/16 07:50:16;;;;;;;0.30;0.23;;;;;;;;;;5093210;28;20456;-65
2021/07/16 07:52:42;;;;;;;0.30;0.20;;;;;;;;;;5092816;28;20778;-66
2021/07/16 07:55:08;;;;;;;0.30;0.20;;;;;;;;;;5092670;28;20400;-66
2021/07/16 07:57:35;;;;;;;0.30;0.20;;;;;;;;;;5092861;28;20430;-67
2021/07/16 08:00:01;;;;;;;0.30;0.20;;;;;;;;;;5093158;28;20511;-66
2021/07/16 08:02:27;;;;;;;0.30;0.30;;;;;;;;;;5093109;28;20897;-65
2021/07/16 08:04:53;;;;;;;0.30;0.20;;;;;;;;;;5093277;28;20465;-66
2021/07/16 08:07:19;;;;;;;0.30;0.23;;;;;;;;;;5092813;28;20436;-67
2021/07/16 08:09:45;;;;;;;0.30;0.20;;;;;;;;;;5092773;28;20451;-63
2021/07/16 08:12:11;;;;;;;0.30;0.20;;;;;;;;;;5092701;28;20412;-65
2021/07/16 08:14:37;;;;;;;0.30;0.27;;;;;;;;;;5092454;28;20466;-66
2021/07/16 08:17:03;;;;;;;0.30;0.30;;;;;;;;;;5092716;28;20420;-66
2021/07/16 08:19:29;;;;;;;0.30;0.20;;;;;;;;;;5092557;28;20946;-67
2021/07/16 08:21:55;;;;;;;0.30;0.20;;;;;;;;;;5091958;28;20400;-65
2021/07/16 08:24:22;;;;;;;0.30;0.20;;;;;;;;;;5092279;28;20755;-65
2021/07/16 08:26:48;;;;;;;0.30;0.20;;;;;;;;;;5092095;28;20429;-65
2021/07/16 08:29:15;;;;;;;0.30;0.20;;;;;;;;;;5092476;28;20400;-67
2021/07/16 08:31:43;;;;;;;0.30;0.30;;;;;;;;;;5092403;28;20492;-66
2021/07/16 08:34:09;;;;;;;0.30;0.20;;;;;;;;;;5092271;28;20412;-65
2021/07/16 08:36:35;;;;;;;0.30;0.20;;;;;;;;;;5091941;28;20399;-65
2021/07/16 08:39:02;;;;;;;0.30;0.20;;;;;;;;;;5075652;28;20445;-65
2021/07/16 08:41:28;;;;;;;0.30;0.20;;;;;;;;;;5071664;28;20918;-67
2021/07/16 08:43:54;;;;;;;0.30;0.20;;;;;;;;;;5071863;28;20409;-67
2021/07/16 08:46:20;;;;;;;0.30;0.20;;;;;;;;;;5071209;28;20506;-67
2021/07/16 08:48:48;;;;;;;0.30;0.20;;;;;;;;;;5071119;28;20730;-67
2021/07/16 08:51:15;;;;;;;0.30;0.20;;;;;;;;;;5071635;28;20453;-66
2021/07/16 08:53:41;;;;;;;0.30;0.20;;;;;;;;;;5072081;28;20479;-66
2021/07/16 08:56:08;;;;;;;0.30;0.30;;;;;;;;;;5072009;28;20428;-65
2021/07/16 08:58:34;;;;;;;0.30;0.20;;;;;;;;;;5071876;28;20767;-67
2021/07/16 09:01:00;;;;;;;0.30;0.20;;;;;;;;;;5071602;28;20986;-66
2021/07/16 09:03:28;;;;;;;0.30;0.20;;;;;;;;;;5072019;28;20376;-66
2021/07/16 09:05:54;;;;;;;0.30;0.20;;;;;;;;;;5071574;28;20494;-68
2021/07/16 09:08:21;;;;;;;0.30;0.20;;;;;;;;;;5071770;28;20406;-65
2021/07/16 09:10:51;;;;;;;0.30;0.20;;;;;;;;;;5071419;28;20493;-66
2021/07/16 09:13:18;;;;;;;0.20;0.20;;;;;;;;;;5071605;28;20409;-66
2021/07/16 09:15:48;;;;;;;0.20;0.20;;;;;;;;;;5071649;28;20421;-65
2021/07/16 09:18:40;;;;;;;0.20;0.20;;;;;;;;;;5071623;28;20482;-65
2021/07/16 09:21:08;;;;;;;0.20;0.20;;;;;;;;;;5066920;28;20854;-63
2021/07/16 09:23:41;;;;;;;0.20;0.20;;;;;;;;;;5071589;28;20408;-63
2021/07/16 09:26:12;;;;;;;0.20;0.20;;;;;;;;;;5071546;28;20427;-66
2021/07/16 09:28:40;;;;;;;0.20;0.20;;;;;;;;;;5071189;28;20448;-62
2021/07/16 09:31:27;;;;;;;0.20;0.20;;;;;;;;;;5053157;28;20972;-65
2021/07/16 09:33:53;;;;;;;0.20;0.20;;;;;;;;;;5071576;28;20389;-65
2021/07/16 09:36:23;;;;;;;0.20;0.20;;;;;;;;;;5071546;28;20411;-66
2021/07/16 09:38:50;;;;;;;0.20;0.20;;;;;;;;;;5071495;28;20408;-66
2021/07/16 09:41:17;;;;;;;0.20;0.20;;;;;;;;;;5071219;28;20772;-66
2021/07/16 09:43:43;;;;;;;0.20;0.20;;;;;;;;;;5071464;28;20420;-66
2021/07/16 09:46:09;;;;;;;0.20;0.20;;;;;;;;;;5071294;28;20450;-66
2021/07/16 09:48:36;;;;;;;0.20;0.20;;;;;;;;;;5071065;28;20821;-66
2021/07/16 09:51:20;;;;;;;0.20;0.20;;;;;;;;;;5070630;28;20458;-66
2021/07/16 09:53:54;;;;;;;0.20;0.20;;;;;;;;;;5071137;28;20942;-66
2021/07/16 09:56:24;;;;;;;0.20;0.20;;;;;;;;;;5071328;28;20400;-66
2021/07/16 09:58:59;;;;;;;0.20;0.20;;;;;;;;;;5071309;28;20397;-66
2021/07/16 10:01:28;;;;;;;0.20;0.20;;;;;;;;;;5071107;28;20506;-65
2021/07/16 10:03:54;;;;;;;0.20;0.20;;;;;;;;;;5071316;28;20465;-65
2021/07/16 10:06:21;;;;;;;0.20;0.20;;;;;;;;;;5070981;28;20502;-65
2021/07/16 10:08:48;;;;;;;0.20;0.20;;;;;;;;;;5070949;28;20770;-65
2021/07/16 10:11:19;;;;;;;0.20;0.20;;;;;;;;;;5070725;28;20503;-65
2021/07/16 10:13:45;;;;;;;0.20;0.20;;;;;;;;;;5071189;28;20417;-65
2021/07/16 10:16:13;;;;;;;0.20;0.20;;;;;;;;;;5070800;28;20554;-65
2021/07/16 10:18:40;;;;;;;0.20;0.20;;;;;;;;;;5070846;28;20495;-64
2021/07/16 10:21:06;;;;;;;0.20;0.20;;;;;;;;;;5071260;28;20411;-65
2021/07/16 10:23:32;;;;;;;0.20;0.20;;;;;;;;;;5071258;28;20383;-65
2021/07/16 10:25:59;;;;;;;0.20;0.20;;;;;;;;;;5071028;28;20434;-66
2021/07/16 10:28:28;;;;;;;0.20;0.20;;;;;;;;;;5069968;28;20413;-66
2021/07/16 10:30:54;;;;;;;0.20;0.20;;;;;;;;;;5070794;28;20455;-66
2021/07/16 10:33:32;;;;;;;0.20;0.20;;;;;;;;;;5070627;28;20401;-66
2021/07/16 10:35:58;;;;;;;0.20;0.20;;;;;;;;;;5071096;28;20783;-67
2021/07/16 10:38:34;;;;;;;0.20;0.20;;;;;;;;;;5071054;28;20402;-66
2021/07/16 10:41:01;;;;;;;0.20;0.20;;;;;;;;;;5070855;28;20895;-66
2021/07/16 10:43:32;;;;;;;0.20;0.20;;;;;;;;;;5071127;28;20774;-67
2021/07/16 10:46:00;;;;;;;0.20;0.20;;;;;;;;;;5090362;22;20429;-64
2021/07/16 10:48:33;;;;;;;0.20;0.20;;;;;;;;;;5050744;28;20844;-65
2021/07/16 10:51:00;;;;;;;0.20;0.20;;;;;;;;;;5050203;28;20554;-64
2021/07/16 10:53:30;;;;;;;0.20;0.20;;;;;;;;;;5051169;28;20510;-64
2021/07/16 10:55:56;;;;;;;0.20;0.20;;;;;;;;;;5050846;28;20411;-64
2021/07/16 10:58:25;;;;;;;0.20;0.20;;;;;;;;;;5050904;28;20411;-64
2021/07/16 11:00:52;;;;;;;0.20;0.20;;;;;;;;;;5050702;28;20839;-65
2021/07/16 11:03:19;;;;;;;0.20;0.20;;;;;;;;;;5053466;28;20424;-64
2021/07/16 11:05:45;;;;;;;0.20;0.20;;;;;;;;;;5054327;28;20853;-65
2021/07/16 11:08:35;;;;;;;0.20;0.20;;;;;;;;;;5054481;28;20940;-65
2021/07/16 11:11:05;;;;;;;0.20;0.20;;;;;;;;;;5043564;28;20501;-64
2021/07/16 11:13:43;;;;;;;0.20;0.20;;;;;;;;;;5054488;28;20436;-64
2021/07/16 11:16:25;;;;;;;0.20;0.20;;;;;;;;;;5054274;28;20802;-64
2021/07/16 11:18:55;;;;;;;0.20;0.20;;;;;;;;;;5054230;28;20411;-64
2021/07/16 11:21:41;;;;;;;0.20;0.20;;;;;;;;;;5053900;28;20504;-64
2021/07/16 11:24:19;;;;;;;0.20;0.20;;;;;;;;;;5039718;28;20422;-64
2021/07/16 11:26:55;;;;;;;0.20;0.20;;;;;;;;;;5053450;28;20505;-64
2021/07/16 11:29:22;;;;;;;0.20;0.20;;;;;;;;;;5053986;28;20413;-64
2021/07/16 11:32:01;;;;;;;0.20;0.20;;;;;;;;;;5053512;28;20540;-64
2021/07/16 11:34:27;;;;;;;0.20;0.20;;;;;;;;;;5054185;28;20412;-64
2021/07/16 11:36:53;;;;;;;0.20;0.20;;;;;;;;;;5053964;28;20457;-64
2021/07/16 11:39:33;;;;;;;0.20;0.20;;;;;;;;;;5053922;28;20388;-64
2021/07/16 11:42:00;;;;;;;0.20;0.20;;;;;;;;;;5053490;28;20440;-64
2021/07/16 11:44:30;;;;;;;0.20;0.20;;;;;;;;;;5053775;28;20434;-64
2021/07/16 11:46:57;;;;;;;0.20;0.20;;;;;;;;;;5053429;28;20439;-64
2021/07/16 11:49:23;;;;;;;0.20;0.20;;;;;;;;;;5053781;28;20484;-64
2021/07/16 11:51:56;;;;;;;0.20;0.20;;;;;;;;;;5053282;28;20555;-64
2021/07/16 11:54:23;;;;;;;0.20;0.20;;;;;;;;;;5053308;28;20419;-64
2021/07/16 11:56:53;;;;;;;0.20;0.20;;;;;;;;;;5053296;28;20778;-64
2021/07/16 11:59:23;;;;;;;0.20;0.20;;;;;;;;;;5052779;28;20860;-64
2021/07/16 12:02:08;;;;;;;0.20;0.20;;;;;;;;;;5053262;28;20934;-64
2021/07/16 12:04:34;;;;;;;0.20;0.20;;;;;;;;;;5053247;28;20897;-64
2021/07/16 12:07:00;;;;;;;0.20;0.20;;;;;;;;;;5052769;28;20953;-64
2021/07/16 12:09:33;;;;;;;0.20;0.20;;;;;;;;;;5053174;28;20406;-64
2021/07/16 12:12:00;;;;;;;0.20;0.20;;;;;;;;;;5053008;28;20434;-64
2021/07/16 12:14:26;;;;;;;0.20;0.20;;;;;;;;;;5051997;28;20434;-64
2021/07/16 12:16:52;;;;;;;0.20;0.20;;;;;;;;;;5052953;28;20458;-64
2021/07/16 12:19:18;;;;;;;0.20;0.20;;;;;;;;;;5052979;28;20956;-64
2021/07/16 12:21:45;;;;;;;0.20;0.20;;;;;;;;;;5052762;28;20399;-64
2021/07/16 12:24:11;;;;;;;0.20;0.20;;;;;;;;;;5052886;28;20490;-64
2021/07/16 12:26:37;;;;;;;0.20;0.20;;;;;;;;;;5052892;28;20930;-64
2021/07/16 12:29:05;;;;;;;0.20;0.20;;;;;;;;;;5053030;28;20774;-64
2021/07/16 12:31:34;;;;;;;0.20;0.20;;;;;;;;;;5052520;28;20437;-64
2021/07/16 12:34:01;;;;;;;0.20;0.20;;;;;;;;;;5052829;28;20418;-64
2021/07/16 12:36:30;;;;;;;0.20;0.20;;;;;;;;;;5052532;28;20430;-64
2021/07/16 12:39:00;;;;;;;0.20;0.20;;;;;;;;;;5052866;28;20402;-64
2021/07/16 12:41:27;;;;;;;0.20;0.20;;;;;;;;;;5052335;28;20918;-64
2021/07/16 12:43:53;;;;;;;0.20;0.20;;;;;;;;;;5052937;28;20414;-64
2021/07/16 12:46:29;;;;;;;0.20;0.20;;;;;;;;;;5052321;28;20512;-64
2021/07/16 12:49:16;;;;;;;0.20;0.20;;;;;;;;;;5052353;28;20418;-64
2021/07/16 12:51:42;;;;;;;0.20;0.20;;;;;;;;;;5051903;28;20508;-63
2021/07/16 12:54:18;;;;;;;0.20;0.20;;;;;;;;;;5052438;28;20494;-64
2021/07/16 12:56:44;;;;;;;0.20;0.20;;;;;;;;;;5052151;28;20829;-66
2021/07/16 12:59:30;;;;;;;0.20;0.20;;;;;;;;;;5034341;28;20457;-63
2021/07/16 13:01:57;;;;;;;0.20;0.20;;;;;;;;;;5052174;28;20394;-63
2021/07/16 13:04:23;;;;;;;0.20;0.20;;;;;;;;;;5052367;28;20388;-63
2021/07/16 13:06:51;;;;;;;0.20;0.20;;;;;;;;;;5052515;28;20754;-62
2021/07/16 13:09:25;;;;;;;0.20;0.20;;;;;;;;;;5052170;28;20756;-63
2021/07/16 13:12:02;;;;;;;0.20;0.20;;;;;;;;;;5051052;28;20464;-64
2021/07/16 13:14:32;;;;;;;0.20;0.20;;;;;;;;;;5052064;28;20497;-64
2021/07/16 13:17:19;;;;;;;0.20;0.20;;;;;;;;;;5052048;28;20426;-64
2021/07/16 13:19:45;;;;;;;0.20;0.20;;;;;;;;;;5051767;28;20403;-64
2021/07/16 13:22:12;;;;;;;0.20;0.20;;;;;;;;;;5051955;28;20409;-64
2021/07/16 13:24:38;;;;;;;0.20;0.20;;;;;;;;;;5051731;28;20399;-63
2021/07/16 13:27:04;;;;;;;0.20;0.20;;;;;;;;;;5051766;28;20899;-63
2021/07/16 13:29:30;;;;;;;0.20;0.20;;;;;;;;;;5051829;28;20464;-63
2021/07/16 13:31:56;;;;;;;0.20;0.20;;;;;;;;;;5050660;28;20600;-63
2021/07/16 13:34:22;;;;;;;0.20;0.20;;;;;;;;;;5051508;28;20756;-64
2021/07/16 13:36:48;;;;;;;0.20;0.20;;;;;;;;;;5051554;28;20504;-64
2021/07/16 13:39:14;;;;;;;0.20;0.20;;;;;;;;;;5051575;28;20382;-64
2021/07/16 13:41:41;;;;;;;0.20;0.20;;;;;;;;;;5051425;28;20410;-64
2021/07/16 13:44:07;;;;;;;0.20;0.20;;;;;;;;;;5051603;28;20383;-64
2021/07/16 13:46:35;;;;;;;0.20;0.20;;;;;;;;;;5051460;28;20814;-64
2021/07/16 13:49:03;;;;;;;0.20;0.20;;;;;;;;;;5051479;28;20849;-64
2021/07/16 13:51:29;;;;;;;0.20;0.20;;;;;;;;;;5051087;28;20880;-63
2021/07/16 13:53:55;;;;;;;0.20;0.20;;;;;;;;;;5051588;28;20447;-63
2021/07/16 13:56:21;;;;;;;0.20;0.20;;;;;;;;;;5051370;28;20962;-63
2021/07/16 13:58:47;;;;;;;0.20;0.20;;;;;;;;;;5051408;28;20489;-63
2021/07/16 14:01:13;;;;;;;0.20;0.20;;;;;;;;;;5051355;28;20508;-62
2021/07/16 14:03:39;;;;;;;0.20;0.20;;;;;;;;;;5050735;28;20419;-63
2021/07/16 14:06:05;;;;;;;0.20;0.20;;;;;;;;;;5049562;28;20551;-63
2021/07/16 14:08:31;;;;;;;0.20;0.20;;;;;;;;;;5049384;28;20448;-64
2021/07/16 14:10:57;;;;;;;0.20;0.20;;;;;;;;;;5049125;28;20437;-64
2021/07/16 14:13:23;;;;;;;0.20;0.20;;;;;;;;;;5050813;28;20411;-63
2021/07/16 14:15:49;;;;;;;0.20;0.20;;;;;;;;;;5051555;28;20519;-63
2021/07/16 14:18:15;;;;;;;0.20;0.20;;;;;;;;;;5051212;28;20408;-64
2021/07/16 14:20:41;;;;;;;0.20;0.20;;;;;;;;;;5057133;28;20424;-63
2021/07/16 14:23:07;;;;;;;0.20;0.20;;;;;;;;;;5052785;28;20441;-64
2021/07/16 14:25:33;;;;;;;0.20;0.20;;;;;;;;;;5051410;28;20983;-63
2021/07/16 14:28:00;;;;;;;0.20;0.20;;;;;;;;;;5051088;28;20406;-63
2021/07/16 14:30:29;;;;;;;0.20;0.20;;;;;;;;;;5050827;28;20821;-63
2021/07/16 14:32:55;;;;;;;0.20;0.20;;;;;;;;;;5051187;28;20433;-64
2021/07/16 14:35:24;;;;;;;0.20;0.20;;;;;;;;;;5051159;28;21120;-64
2021/07/16 14:37:51;;;;;;;0.20;0.20;;;;;;;;;;5052999;28;20424;-64
2021/07/16 14:40:18;;;;;;;0.20;0.20;;;;;;;;;;5054789;28;20787;-64
2021/07/16 14:42:44;;;;;;;0.20;0.20;;;;;;;;;;5054999;28;20580;-64
2021/07/16 14:45:10;;;;;;;0.20;0.20;;;;;;;;;;5054795;28;20531;-63